Time;durP1;ratioP1;P1;durP2;ratioP2;P2;SDS_P1;SDS_P2;PMS_P1;PMS_P2;Temp;Humidity;BMP_temperature;BMP_pressure;BME280_temperature;BME280_humidity;BME280_pressure;Samples;Min_cycle;Max_cycle;Signal;HPM_P1;HPM_P2
2023/01/09 00:01:30;;;;;;;1.90;1.37;;;7.40;99.90;;;;;;5048071;28;21058;-69
2023/01/09 00:03:57;;;;;;;1.38;1.27;;;7.50;99.90;;;;;;5048914;28;20965;-69
2023/01/09 00:06:24;;;;;;;2.07;1.90;;;7.50;99.90;;;;;;5047863;28;20255;-70
2023/01/09 00:08:51;;;;;;;1.90;1.70;;;7.50;99.90;;;;;;5048297;28;20628;-71
2023/01/09 00:11:17;;;;;;;2.73;1.50;;;7.40;99.90;;;;;;5048108;28;21259;-69
2023/01/09 00:13:45;;;;;;;2.60;1.10;;;7.40;99.90;;;;;;5048189;28;20629;-69
2023/01/09 00:16:13;;;;;;;3.23;2.03;;;7.50;99.90;;;;;;5048317;28;21311;-70
2023/01/09 00:18:41;;;;;;;1.33;1.13;;;7.50;99.90;;;;;;5048287;28;20627;-69
2023/01/09 00:21:10;;;;;;;1.73;1.37;;;7.40;99.90;;;;;;5047363;28;21199;-69
2023/01/09 00:23:37;;;;;;;1.67;1.53;;;7.50;99.90;;;;;;5047840;28;20626;-67
2023/01/09 00:26:06;;;;;;;1.13;1.03;;;7.50;99.90;;;;;;5048199;28;20654;-70
2023/01/09 00:28:33;;;;;;;0.57;0.57;;;7.50;99.90;;;;;;5048504;28;20715;-69
2023/01/09 00:31:01;;;;;;;0.93;0.70;;;7.40;99.90;;;;;;5046780;28;20663;-68
2023/01/09 00:33:30;;;;;;;1.27;1.17;;;7.50;99.90;;;;;;5047453;28;20638;-69
2023/01/09 00:35:58;;;;;;;1.20;1.10;;;7.40;99.90;;;;;;5047726;28;20765;-69
2023/01/09 00:38:25;;;;;;;3.60;0.87;;;7.40;99.90;;;;;;5048293;28;21356;-69
2023/01/09 00:40:52;;;;;;;0.53;0.53;;;7.40;99.90;;;;;;5047666;28;20646;-70
2023/01/09 00:43:20;;;;;;;2.80;2.70;;;7.30;99.90;;;;;;5045673;28;20642;-70
2023/01/09 00:45:47;;;;;;;0.40;0.30;;;7.40;99.90;;;;;;5047503;28;21022;-70
2023/01/09 00:48:23;;;;;;;0.40;0.30;;;7.30;99.90;;;;;;5047202;28;20195;-70
2023/01/09 00:50:51;;;;;;;0.60;0.60;;;7.40;99.90;;;;;;5047566;28;20657;-69
2023/01/09 00:53:23;;;;;;;3.40;1.00;;;7.40;99.90;;;;;;5047737;28;20622;-69
2023/01/09 00:55:50;;;;;;;1.13;1.03;;;7.30;99.90;;;;;;5047279;28;20681;-69
2023/01/09 00:58:17;;;;;;;1.13;0.87;;;7.40;99.90;;;;;;5047588;28;21164;-69
2023/01/09 01:00:44;;;;;;;0.70;0.47;;;7.40;99.90;;;;;;5046160;28;20658;-69
2023/01/09 01:03:11;;;;;;;0.57;0.27;;;7.40;99.90;;;;;;5047358;28;20668;-68
2023/01/09 01:08:23;;;;;;;0.50;0.50;;;7.40;99.90;;;;;;5047175;28;20618;-69
2023/01/09 01:10:50;;;;;;;0.52;0.40;;;7.40;99.90;;;;;;5046551;28;21231;-70
2023/01/09 01:13:17;;;;;;;2.00;0.57;;;7.50;99.90;;;;;;5047311;28;20237;-68
2023/01/09 01:15:45;;;;;;;2.50;0.80;;;7.40;99.90;;;;;;5046810;28;21019;-70
2023/01/09 01:18:13;;;;;;;0.40;0.30;;;7.40;99.90;;;;;;5047743;28;20619;-69
2023/01/09 01:20:40;;;;;;;0.60;0.30;;;7.40;99.90;;;;;;5046570;28;20653;-70
2023/01/09 01:23:08;;;;;;;0.85;0.82;;;7.50;99.90;;;;;;5046612;28;20234;-69
2023/01/09 01:25:38;;;;;;;0.47;0.47;;;7.40;99.90;;;;;;5046061;28;20307;-69
2023/01/09 01:28:05;;;;;;;0.60;0.30;;;7.40;99.90;;;;;;5046912;28;20291;-69
2023/01/09 01:30:33;;;;;;;0.30;0.20;;;7.40;99.90;;;;;;5046450;28;20226;-69
2023/01/09 01:32:59;;;;;;;0.40;0.40;;;7.40;99.90;;;;;;5045605;28;20645;-69
2023/01/09 01:35:26;;;;;;;0.95;0.77;;;7.40;99.90;;;;;;5046578;28;20235;-69
2023/01/09 01:37:53;;;;;;;0.30;0.30;;;7.40;99.90;;;;;;5046788;28;20679;-70
2023/01/09 01:40:20;;;;;;;0.30;0.20;;;7.40;99.90;;;;;;5046047;28;20204;-70
2023/01/09 01:42:50;;;;;;;0.68;0.47;;;7.50;99.90;;;;;;5042698;28;20227;-69
2023/01/09 01:45:18;;;;;;;0.50;0.40;;;7.50;99.90;;;;;;5046246;28;20669;-69
2023/01/09 01:47:52;;;;;;;0.30;0.20;;;7.40;99.90;;;;;;5046768;28;21226;-68
2023/01/09 01:50:28;;;;;;;0.47;0.32;;;7.40;99.90;;;;;;5046755;28;20203;-69
2023/01/09 01:53:04;;;;;;;1.75;0.88;;;7.40;99.90;;;;;;5030673;28;20192;-70
2023/01/09 01:55:33;;;;;;;0.30;0.30;;;7.30;99.90;;;;;;5046483;28;20220;-69
2023/01/09 01:58:05;;;;;;;0.35;0.35;;;7.20;99.90;;;;;;5046268;28;20202;-69
2023/01/09 02:00:35;;;;;;;0.73;0.32;;;7.30;99.90;;;;;;5037684;28;20222;-69
2023/01/09 02:03:02;;;;;;;0.43;0.35;;;7.30;99.90;;;;;;5046041;28;20310;-69
2023/01/09 02:05:29;;;;;;;0.57;0.32;;;7.30;99.90;;;;;;5046309;28;20224;-69
2023/01/09 02:07:56;;;;;;;0.40;0.30;;;7.30;99.90;;;;;;5046513;28;20196;-69
2023/01/09 02:10:25;;;;;;;1.73;0.40;;;7.40;99.90;;;;;;5046087;28;20306;-70
2023/01/09 02:12:52;;;;;;;0.93;0.45;;;7.30;99.90;;;;;;5046610;28;20200;-70
2023/01/09 02:15:22;;;;;;;0.33;0.33;;;7.30;99.90;;;;;;5046269;28;20192;-69
2023/01/09 02:18:25;;;;;;;0.60;0.50;;;7.30;99.90;;;;;;5046596;28;20637;-70
2023/01/09 02:20:58;;;;;;;0.30;0.20;;;7.30;99.90;;;;;;5036572;28;20281;-71
2023/01/09 02:24:07;;;;;;;0.65;0.57;;;7.30;99.90;;;;;;5050654;28;20734;-71
2023/01/09 02:27:01;;;;;;;0.40;0.30;;;7.30;99.90;;;;;;5038323;28;20318;-71
2023/01/09 02:30:02;;;;;;;0.30;0.30;;;7.30;99.90;;;;;;5045118;28;20285;-70
2023/01/09 02:32:43;;;;;;;0.40;0.20;;;7.30;99.90;;;;;;5031810;28;20192;-69
2023/01/09 02:35:22;;;;;;;0.30;0.20;;;7.20;99.90;;;;;;5049509;28;20270;-69
2023/01/09 02:38:00;;;;;;;0.40;0.30;;;7.20;99.90;;;;;;5049442;28;20200;-69
2023/01/09 02:40:34;;;;;;;0.30;0.25;;;7.20;99.90;;;;;;5048919;28;20223;-70
2023/01/09 02:43:03;;;;;;;0.30;0.30;;;7.30;99.90;;;;;;5048936;28;20759;-70
2023/01/09 02:45:33;;;;;;;0.52;0.35;;;7.20;99.90;;;;;;5049453;28;20650;-69
2023/01/09 02:48:01;;;;;;;0.40;0.40;;;7.20;99.90;;;;;;5049535;28;20214;-71
2023/01/09 02:50:36;;;;;;;1.33;0.82;;;7.30;99.90;;;;;;5049249;28;20698;-69
2023/01/09 02:53:34;;;;;;;0.40;0.30;;;7.30;99.90;;;;;;5049019;28;20223;-70
2023/01/09 02:56:19;;;;;;;0.40;0.30;;;7.30;99.90;;;;;;5048123;28;20653;-69
2023/01/09 02:59:07;;;;;;;0.80;0.52;;;7.30;99.90;;;;;;5039636;28;20208;-69
2023/01/09 03:01:48;;;;;;;0.40;0.38;;;7.20;99.90;;;;;;5029575;28;20237;-70
2023/01/09 03:04:24;;;;;;;0.63;0.30;;;7.30;99.90;;;;;;5031018;28;20213;-70
2023/01/09 03:06:59;;;;;;;0.57;0.40;;;7.30;99.90;;;;;;5049525;28;20646;-68
2023/01/09 03:09:31;;;;;;;0.40;0.30;;;7.30;99.90;;;;;;5049123;28;20570;-70
2023/01/09 03:12:04;;;;;;;0.43;0.40;;;7.20;99.90;;;;;;5048950;28;20223;-72
2023/01/09 03:14:33;;;;;;;0.30;0.20;;;7.20;99.90;;;;;;5049245;28;20288;-71
2023/01/09 03:17:06;;;;;;;0.30;0.10;;;7.20;99.90;;;;;;5049475;28;20254;-71
2023/01/09 03:19:35;;;;;;;0.30;0.30;;;7.20;99.90;;;;;;5049421;28;20544;-71
2023/01/09 03:22:03;;;;;;;0.30;0.10;;;7.20;99.90;;;;;;5048301;28;20223;-69
2023/01/09 03:24:32;;;;;;;0.30;0.30;;;7.10;99.90;;;;;;5049014;28;20276;-71
2023/01/09 03:27:01;;;;;;;0.30;0.20;;;7.10;99.90;;;;;;5049364;28;20646;-71
2023/01/09 03:29:29;;;;;;;0.30;0.20;;;7.00;99.90;;;;;;5049268;28;20200;-70
2023/01/09 03:31:58;;;;;;;0.30;0.20;;;7.00;99.90;;;;;;5029323;28;20316;-70
2023/01/09 03:34:27;;;;;;;0.30;0.20;;;6.90;99.90;;;;;;5045142;28;20261;-71
2023/01/09 03:36:55;;;;;;;0.40;0.40;;;6.90;99.90;;;;;;5048532;28;20641;-70
2023/01/09 03:39:22;;;;;;;0.50;0.47;;;6.80;99.90;;;;;;5048979;28;20204;-71
2023/01/09 03:41:49;;;;;;;2.78;0.40;;;6.80;99.90;;;;;;5048350;28;20227;-71
2023/01/09 03:44:18;;;;;;;0.40;0.30;;;6.80;99.90;;;;;;5044778;28;20571;-70
2023/01/09 03:46:49;;;;;;;0.30;0.20;;;6.80;99.90;;;;;;5048598;28;20318;-71
2023/01/09 03:49:17;;;;;;;0.70;0.40;;;6.60;99.90;;;;;;5047886;28;20215;-70
2023/01/09 03:51:48;;;;;;;0.43;0.43;;;6.70;99.90;;;;;;5048829;28;20566;-70
2023/01/09 03:54:15;;;;;;;0.30;0.20;;;6.70;99.90;;;;;;5048369;28;20206;-71
2023/01/09 03:56:42;;;;;;;0.30;0.20;;;6.80;99.90;;;;;;5048671;28;20581;-69
2023/01/09 03:59:11;;;;;;;0.30;0.20;;;6.80;99.90;;;;;;5038643;28;20200;-71
2023/01/09 04:01:38;;;;;;;0.30;0.20;;;6.80;99.90;;;;;;5047690;28;20222;-71
2023/01/09 04:04:06;;;;;;;0.40;0.30;;;6.70;99.90;;;;;;5048499;28;20712;-70
2023/01/09 04:06:33;;;;;;;0.63;0.40;;;6.70;99.90;;;;;;5048179;28;20971;-70
2023/01/09 04:09:03;;;;;;;0.40;0.38;;;6.70;99.90;;;;;;5048437;28;20715;-71
2023/01/09 04:11:31;;;;;;;0.30;0.20;;;6.70;99.90;;;;;;5047680;28;20228;-70
2023/01/09 04:13:59;;;;;;;0.30;0.20;;;6.60;99.90;;;;;;5048355;28;20228;-69
2023/01/09 04:16:26;;;;;;;0.40;0.20;;;6.50;99.90;;;;;;5047401;28;20247;-71
2023/01/09 04:18:55;;;;;;;0.30;0.20;;;6.40;99.90;;;;;;5048529;28;20210;-70
2023/01/09 04:21:22;;;;;;;0.40;0.30;;;6.50;99.90;;;;;;5047746;28;20220;-70
2023/01/09 04:23:48;;;;;;;0.30;0.20;;;6.40;99.90;;;;;;5047994;28;20238;-69
2023/01/09 04:26:17;;;;;;;0.30;0.20;;;6.40;99.90;;;;;;5047988;28;20638;-69
2023/01/09 04:28:43;;;;;;;0.30;0.20;;;6.30;99.90;;;;;;5047954;28;20282;-70
2023/01/09 04:31:10;;;;;;;0.30;0.10;;;6.20;99.90;;;;;;5047806;28;20226;-70
2023/01/09 04:33:37;;;;;;;0.30;0.20;;;6.10;99.90;;;;;;5047784;28;20200;-70
2023/01/09 04:36:04;;;;;;;0.30;0.20;;;6.00;99.90;;;;;;5047925;28;20232;-70
2023/01/09 04:38:31;;;;;;;0.30;0.20;;;5.90;99.90;;;;;;5047706;28;20641;-69
2023/01/09 04:40:58;;;;;;;0.30;0.20;;;5.80;99.90;;;;;;5047134;28;20611;-69
2023/01/09 04:43:26;;;;;;;0.30;0.20;;;5.80;99.90;;;;;;5046776;28;20820;-70
2023/01/09 04:45:53;;;;;;;0.50;0.20;;;5.70;99.90;;;;;;5048046;28;20228;-70
2023/01/09 04:48:20;;;;;;;0.30;0.30;;;5.60;99.90;;;;;;5047778;28;20206;-70
2023/01/09 04:50:46;;;;;;;0.30;0.20;;;5.60;99.90;;;;;;5047646;28;20227;-70
2023/01/09 04:53:13;;;;;;;0.52;0.30;;;5.60;99.90;;;;;;5047333;28;20200;-70
2023/01/09 04:55:41;;;;;;;0.30;0.20;;;5.40;99.90;;;;;;5047203;28;20232;-69
2023/01/09 04:58:08;;;;;;;0.30;0.20;;;5.50;99.90;;;;;;5047790;28;20212;-70
2023/01/09 05:00:36;;;;;;;0.30;0.20;;;5.50;99.90;;;;;;5046658;28;20253;-71
2023/01/09 05:03:03;;;;;;;0.30;0.20;;;5.50;99.90;;;;;;5047436;28;20216;-70
2023/01/09 05:05:30;;;;;;;0.50;0.30;;;5.50;99.90;;;;;;5047162;28;20582;-70
2023/01/09 05:07:56;;;;;;;0.30;0.20;;;5.50;99.90;;;;;;5047321;28;20210;-70
2023/01/09 05:10:23;;;;;;;0.30;0.20;;;5.50;99.90;;;;;;5046817;28;20227;-71
2023/01/09 05:12:51;;;;;;;0.30;0.28;;;5.50;99.90;;;;;;5046963;28;20215;-70
2023/01/09 05:15:18;;;;;;;0.73;0.43;;;5.50;99.90;;;;;;5046955;28;20615;-70
2023/01/09 05:17:46;;;;;;;0.30;0.30;;;5.40;99.90;;;;;;5046774;28;20204;-70
2023/01/09 05:20:13;;;;;;;0.30;0.20;;;5.50;99.90;;;;;;5047082;28;20202;-70
2023/01/09 05:22:40;;;;;;;0.60;0.60;;;5.50;99.90;;;;;;5046478;28;20259;-67
2023/01/09 05:25:07;;;;;;;0.75;0.75;;;5.40;99.90;;;;;;5046372;28;20210;-69
2023/01/09 05:27:34;;;;;;;0.30;0.20;;;5.40;99.90;;;;;;5047359;28;20208;-70
2023/01/09 05:30:01;;;;;;;0.40;0.40;;;5.30;99.90;;;;;;5047307;28;20211;-69
2023/01/09 05:32:27;;;;;;;0.30;0.20;;;5.30;99.90;;;;;;5045961;28;20223;-69
2023/01/09 05:34:55;;;;;;;0.30;0.30;;;5.20;99.90;;;;;;5046658;28;20219;-69
2023/01/09 05:37:22;;;;;;;0.30;0.20;;;5.20;99.90;;;;;;5046829;28;20223;-69
2023/01/09 05:39:49;;;;;;;0.32;0.32;;;5.20;99.90;;;;;;5045709;28;20192;-70
2023/01/09 05:42:16;;;;;;;0.30;0.20;;;5.20;99.90;;;;;;5046533;28;20220;-70
2023/01/09 05:44:42;;;;;;;0.30;0.20;;;5.20;99.90;;;;;;5046048;28;20216;-69
2023/01/09 05:47:09;;;;;;;0.30;0.22;;;5.10;99.90;;;;;;5044547;28;20223;-69
2023/01/09 05:49:36;;;;;;;0.30;0.30;;;5.10;99.90;;;;;;5046463;28;20208;-68
2023/01/09 05:52:05;;;;;;;0.40;0.20;;;5.00;99.90;;;;;;5045251;28;20222;-69
2023/01/09 05:54:31;;;;;;;0.30;0.20;;;5.10;99.90;;;;;;5044321;28;20253;-71
2023/01/09 05:57:15;;;;;;;0.45;0.28;;;5.10;99.90;;;;;;5041425;28;20281;-73
2023/01/09 05:59:42;;;;;;;0.30;0.20;;;5.10;99.90;;;;;;5042894;28;20200;-71
2023/01/09 06:02:10;;;;;;;0.80;0.70;;;5.00;99.90;;;;;;5046322;28;20228;-72
2023/01/09 06:04:49;;;;;;;;;;;;;;;;;;;;;
2023/01/09 06:07:18;;;;;;;3.72;0.60;;;5.10;99.90;;;;;;5046754;28;20285;-71
2023/01/09 06:09:51;;;;;;;0.30;0.22;;;5.00;99.90;;;;;;5046323;28;20208;-72
2023/01/09 06:12:23;;;;;;;0.30;0.20;;;5.00;99.90;;;;;;5046843;28;20228;-72
2023/01/09 06:14:50;;;;;;;0.30;0.25;;;5.00;99.90;;;;;;5045603;28;20212;-70
2023/01/09 06:17:16;;;;;;;0.30;0.20;;;5.00;99.90;;;;;;5045182;28;20600;-69
2023/01/09 06:19:43;;;;;;;0.30;0.20;;;5.00;99.90;;;;;;5045554;28;20737;-70
2023/01/09 06:22:10;;;;;;;2.28;0.47;;;5.00;99.90;;;;;;5045822;28;20227;-69
2023/01/09 06:24:41;;;;;;;0.75;0.65;;;5.00;99.90;;;;;;5043743;28;20228;-71
2023/01/09 06:27:07;;;;;;;0.40;0.40;;;4.90;99.90;;;;;;5042103;28;20224;-69
2023/01/09 06:29:34;;;;;;;0.30;0.20;;;4.90;99.90;;;;;;5046233;28;20202;-70
2023/01/09 06:32:01;;;;;;;0.40;0.32;;;4.90;99.90;;;;;;5045957;28;20277;-70
2023/01/09 06:34:28;;;;;;;0.80;0.47;;;4.80;99.90;;;;;;5046524;28;20287;-69
2023/01/09 06:36:55;;;;;;;0.63;0.60;;;5.40;99.90;;;;;;5045515;28;20235;-70
2023/01/09 06:39:21;;;;;;;0.70;0.70;;;4.70;99.90;;;;;;5046414;28;20196;-69
2023/01/09 06:41:49;;;;;;;0.30;0.30;;;4.70;99.90;;;;;;5045866;28;20224;-70
2023/01/09 06:44:16;;;;;;;5.05;0.57;;;4.80;99.90;;;;;;5045537;28;20234;-70
2023/01/09 06:46:43;;;;;;;0.40;0.30;;;4.70;99.90;;;;;;5046087;28;20238;-69
2023/01/09 06:49:10;;;;;;;0.30;0.30;;;4.70;99.90;;;;;;5045907;28;20191;-70
2023/01/09 06:51:37;;;;;;;0.30;0.25;;;4.60;99.90;;;;;;5044406;28;20219;-70
2023/01/09 06:54:04;;;;;;;0.30;0.20;;;4.60;99.90;;;;;;5045678;28;20730;-69
2023/01/09 06:56:30;;;;;;;0.30;0.20;;;4.50;99.90;;;;;;5046171;28;20307;-70
2023/01/09 06:59:00;;;;;;;0.30;0.20;;;4.50;99.90;;;;;;5043973;28;20204;-69
2023/01/09 07:01:26;;;;;;;0.30;0.20;;;4.60;99.90;;;;;;5042374;28;20247;-71
2023/01/09 07:03:53;;;;;;;0.30;0.20;;;4.70;99.90;;;;;;5046682;28;20228;-69
2023/01/09 07:06:20;;;;;;;0.30;0.30;;;4.70;99.90;;;;;;5049810;28;20227;-70
2023/01/09 07:08:47;;;;;;;0.68;0.40;;;4.80;99.90;;;;;;5048736;28;20195;-70
2023/01/09 07:11:14;;;;;;;0.40;0.40;;;5.10;99.90;;;;;;5039670;28;20219;-71
2023/01/09 07:13:41;;;;;;;0.30;0.20;;;5.20;99.90;;;;;;5043313;28;20298;-69
2023/01/09 07:16:09;;;;;;;0.60;0.45;;;4.90;99.90;;;;;;5040849;28;20223;-70
2023/01/09 07:18:36;;;;;;;0.30;0.30;;;5.00;99.90;;;;;;5048813;28;20291;-70
2023/01/09 07:21:05;;;;;;;0.40;0.32;;;5.00;99.90;;;;;;5045276;28;20611;-69
2023/01/09 07:23:32;;;;;;;0.30;0.20;;;5.00;99.90;;;;;;5048904;28;20212;-69
2023/01/09 07:26:00;;;;;;;0.30;0.20;;;4.90;99.90;;;;;;5048705;28;20244;-69
2023/01/09 07:28:26;;;;;;;0.30;0.20;;;4.90;99.90;;;;;;5048474;28;20713;-71
2023/01/09 07:30:53;;;;;;;0.30;0.20;;;4.90;99.90;;;;;;5049564;28;20220;-70
2023/01/09 07:33:21;;;;;;;0.30;0.30;;;5.00;99.90;;;;;;5049175;28;20287;-70
2023/01/09 07:35:50;;;;;;;0.43;0.30;;;4.90;99.90;;;;;;5049217;28;20222;-69
2023/01/09 07:38:17;;;;;;;0.40;0.40;;;5.10;99.90;;;;;;5049347;28;20196;-70
2023/01/09 07:40:44;;;;;;;0.30;0.20;;;4.80;99.90;;;;;;5048261;28;20379;-69
2023/01/09 07:43:11;;;;;;;0.30;0.30;;;7.10;99.90;;;;;;5039627;28;20548;-70
2023/01/09 07:45:38;;;;;;;0.63;0.52;;;5.00;99.90;;;;;;5038791;28;20551;-70
2023/01/09 07:48:13;;;;;;;0.30;0.20;;;4.90;99.90;;;;;;5048350;28;20224;-71
2023/01/09 07:50:45;;;;;;;0.40;0.40;;;5.10;99.90;;;;;;5027451;28;20335;-67
2023/01/09 07:53:12;;;;;;;0.40;0.32;;;5.10;99.90;;;;;;5027690;28;20598;-70
2023/01/09 07:55:38;;;;;;;0.40;0.30;;;5.00;99.90;;;;;;5029341;28;20227;-69
2023/01/09 07:58:05;;;;;;;0.30;0.30;;;5.00;99.90;;;;;;5029125;28;20203;-69
2023/01/09 08:00:32;;;;;;;1.10;0.50;;;4.90;99.90;;;;;;5017249;28;20221;-70
2023/01/09 08:02:59;;;;;;;0.40;0.40;;;4.90;99.90;;;;;;5028654;28;20705;-70
2023/01/09 08:05:26;;;;;;;0.30;0.30;;;4.90;99.90;;;;;;5028346;28;20619;-70
2023/01/09 08:07:54;;;;;;;0.55;0.35;;;4.90;99.90;;;;;;5028766;28;20287;-69
2023/01/09 08:10:20;;;;;;;0.65;0.65;;;5.00;99.90;;;;;;5028826;28;20196;-70
2023/01/09 08:12:48;;;;;;;0.30;0.20;;;5.10;99.90;;;;;;5028207;28;20288;-69
2023/01/09 08:15:16;;;;;;;0.50;0.45;;;5.10;99.90;;;;;;5027868;28;20220;-70
2023/01/09 08:17:44;;;;;;;0.93;0.68;;;5.20;99.90;;;;;;5028473;28;20201;-69
2023/01/09 08:20:13;;;;;;;0.63;0.22;;;5.20;99.90;;;;;;5019047;28;20200;-70
2023/01/09 08:22:41;;;;;;;0.30;0.20;;;5.20;99.90;;;;;;5028079;28;20199;-69
2023/01/09 08:25:10;;;;;;;0.43;0.35;;;5.30;99.90;;;;;;5028430;28;20240;-69
2023/01/09 08:27:37;;;;;;;0.30;0.30;;;5.30;99.90;;;;;;5028640;28;20201;-69
2023/01/09 08:30:05;;;;;;;0.30;0.20;;;5.30;99.90;;;;;;5028005;28;20634;-70
2023/01/09 08:32:32;;;;;;;0.45;0.45;;;5.40;99.90;;;;;;5015955;28;20193;-70
2023/01/09 08:34:58;;;;;;;0.30;0.20;;;5.40;99.90;;;;;;5027726;28;20266;-70
2023/01/09 08:37:25;;;;;;;0.30;0.30;;;5.40;99.90;;;;;;5028596;28;20232;-70
2023/01/09 08:39:53;;;;;;;1.67;1.58;;;5.40;99.90;;;;;;5028549;28;20211;-69
2023/01/09 08:47:50;;;;;;;0.30;0.20;;;5.60;99.90;;;;;;5020071;28;20792;-69
2023/01/09 08:50:17;;;;;;;0.30;0.30;;;5.60;99.90;;;;;;5027112;28;20280;-69
2023/01/09 08:52:44;;;;;;;0.30;0.20;;;5.60;99.90;;;;;;5026755;28;20208;-70
2023/01/09 08:55:11;;;;;;;0.50;0.50;;;5.70;99.90;;;;;;5026615;28;20200;-70
2023/01/09 08:57:47;;;;;;;0.30;0.20;;;5.60;99.90;;;;;;5026017;28;20346;-70
2023/01/09 09:00:15;;;;;;;0.30;0.30;;;5.90;99.90;;;;;;5025652;28;20618;-70
2023/01/09 09:02:41;;;;;;;4.97;1.73;;;5.90;99.90;;;;;;5026747;28;20220;-70
2023/01/09 09:05:09;;;;;;;0.30;0.20;;;5.90;99.90;;;;;;5026576;28;20248;-69
2023/01/09 09:07:36;;;;;;;0.30;0.20;;;5.80;99.90;;;;;;5020376;28;20283;-69
2023/01/09 09:10:04;;;;;;;0.30;0.20;;;6.00;99.90;;;;;;5026803;28;20200;-70
2023/01/09 09:12:30;;;;;;;0.30;0.20;;;5.80;99.90;;;;;;5026636;28;20205;-69
2023/01/09 09:15:15;;;;;;;0.30;0.20;;;5.90;99.90;;;;;;5028133;28;20215;-70
2023/01/09 09:17:42;;;;;;;0.30;0.30;;;5.90;99.90;;;;;;5026978;28;20247;-71
2023/01/09 09:20:10;;;;;;;0.40;0.30;;;6.00;99.90;;;;;;5026075;28;20199;-71
2023/01/09 09:22:37;;;;;;;0.30;0.20;;;6.00;99.90;;;;;;5025893;28;20203;-69
2023/01/09 09:25:04;;;;;;;0.30;0.20;;;6.00;99.90;;;;;;5027610;28;20794;-69
2023/01/09 09:27:31;;;;;;;0.52;0.32;;;6.10;99.90;;;;;;5026872;28;20208;-69
2023/01/09 09:30:00;;;;;;;0.50;0.30;;;6.20;99.90;;;;;;5026339;28;20303;-70
2023/01/09 09:32:27;;;;;;;0.40;0.25;;;6.20;99.90;;;;;;5025696;28;20221;-71
2023/01/09 09:34:54;;;;;;;0.73;0.25;;;6.30;99.90;;;;;;5026004;28;20675;-69
2023/01/09 09:37:21;;;;;;;0.40;0.20;;;6.40;99.90;;;;;;5025710;28;20228;-68
2023/01/09 09:39:48;;;;;;;0.30;0.30;;;6.50;99.90;;;;;;5026581;28;20211;-70
2023/01/09 09:45:36;;;;;;;0.30;0.20;;;6.50;99.90;;;;;;5010817;28;20236;-69
2023/01/09 09:48:17;;;;;;;0.30;0.20;;;6.60;99.90;;;;;;5027191;28;20295;-69
2023/01/09 09:51:08;;;;;;;0.30;0.20;;;6.60;99.90;;;;;;5012485;28;20224;-72
2023/01/09 09:53:39;;;;;;;0.30;0.20;;;6.70;99.90;;;;;;5019135;28;20209;-69
2023/01/09 09:56:11;;;;;;;0.40;0.20;;;6.90;99.90;;;;;;5026225;28;20713;-69
2023/01/09 09:58:41;;;;;;;1.48;0.75;;;6.90;99.90;;;;;;5026734;28;20235;-70
2023/01/09 10:01:13;;;;;;;0.30;0.20;;;6.90;99.90;;;;;;5025741;28;20242;-69
2023/01/09 10:03:45;;;;;;;1.95;0.68;;;6.90;99.90;;;;;;5026658;28;20260;-70
2023/01/09 10:06:20;;;;;;;0.40;0.22;;;6.90;99.90;;;;;;5026781;28;20606;-69
2023/01/09 10:08:54;;;;;;;0.70;0.47;;;6.90;99.90;;;;;;5026382;28;20195;-69
2023/01/09 10:11:27;;;;;;;0.30;0.20;;;7.00;99.90;;;;;;5026947;28;20227;-70
2023/01/09 10:14:06;;;;;;;0.30;0.30;;;6.90;99.90;;;;;;5026553;28;20208;-70
2023/01/09 10:16:53;;;;;;;2.15;0.35;;;6.90;99.90;;;;;;5026644;28;20770;-70
2023/01/09 10:19:33;;;;;;;0.40;0.40;;;6.90;99.90;;;;;;5026444;28;20200;-69
2023/01/09 10:22:10;;;;;;;0.43;0.30;;;6.90;99.90;;;;;;5026536;28;20224;-70
2023/01/09 10:24:57;;;;;;;0.40;0.40;;;7.00;99.90;;;;;;5040694;28;20222;-69
2023/01/09 10:27:39;;;;;;;0.40;0.35;;;7.00;99.90;;;;;;5025989;28;20236;-69
2023/01/09 10:30:24;;;;;;;0.55;0.55;;;7.00;99.90;;;;;;5009619;28;20197;-69
2023/01/09 10:33:00;;;;;;;0.30;0.25;;;7.00;99.90;;;;;;5027144;28;20208;-69
2023/01/09 10:35:41;;;;;;;0.30;0.20;;;7.00;99.90;;;;;;5024626;28;20274;-72
2023/01/09 10:38:18;;;;;;;0.30;0.20;;;6.90;99.90;;;;;;5025498;28;20698;-70
2023/01/09 10:40:53;;;;;;;0.45;0.45;;;6.90;99.90;;;;;;5027748;28;20231;-72
2023/01/09 10:43:29;;;;;;;0.30;0.20;;;7.00;99.90;;;;;;5028442;28;20208;-69
2023/01/09 10:46:02;;;;;;;1.50;0.30;;;7.00;99.90;;;;;;5024724;28;20228;-70
2023/01/09 10:48:33;;;;;;;0.40;0.30;;;7.10;99.90;;;;;;5026993;28;20559;-70
2023/01/09 10:51:00;;;;;;;0.30;0.30;;;7.20;99.90;;;;;;5029213;28;20212;-69
2023/01/09 10:53:30;;;;;;;0.30;0.10;;;7.20;99.90;;;;;;5021536;28;20197;-71
2023/01/09 10:56:03;;;;;;;2.30;0.70;;;7.20;99.90;;;;;;5018310;28;20221;-69
2023/01/09 10:58:30;;;;;;;0.30;0.20;;;7.20;99.90;;;;;;5016647;28;20651;-67
2023/01/09 11:01:00;;;;;;;0.30;0.20;;;7.70;99.90;;;;;;5028911;28;21069;-70
2023/01/09 11:03:28;;;;;;;0.63;0.63;;;7.20;99.90;;;;;;5029109;28;20189;-70
2023/01/09 11:05:57;;;;;;;0.50;0.38;;;7.20;99.90;;;;;;5029098;28;20436;-69
2023/01/09 11:08:29;;;;;;;0.30;0.20;;;7.30;99.90;;;;;;5029350;28;20195;-70
2023/01/09 11:10:58;;;;;;;0.37;0.37;;;7.30;99.90;;;;;;5028783;28;20229;-69
2023/01/09 11:13:28;;;;;;;0.30;0.20;;;7.40;99.90;;;;;;5029923;28;20632;-70
2023/01/09 11:16:05;;;;;;;0.33;0.27;;;7.40;99.90;;;;;;5030403;28;20655;-70
2023/01/09 11:18:33;;;;;;;0.57;0.47;;;7.40;99.90;;;;;;5030182;28;20626;-70
2023/01/09 11:21:34;;;;;;;1.15;0.88;;;7.10;99.90;;;;;;5024924;28;20654;-71
2023/01/09 11:24:30;;;;;;;0.40;0.20;;;7.30;99.90;;;;;;5028181;28;20231;-70
2023/01/09 11:27:26;;;;;;;0.57;0.43;;;7.40;99.90;;;;;;5029594;28;20644;-69
2023/01/09 11:30:15;;;;;;;0.50;0.30;;;7.40;99.90;;;;;;5029407;28;20619;-69
2023/01/09 11:32:42;;;;;;;2.97;1.10;;;7.50;99.90;;;;;;5028797;28;20646;-70
2023/01/09 11:35:27;;;;;;;0.30;0.23;;;7.50;99.90;;;;;;5029430;28;21204;-70
2023/01/09 11:38:13;;;;;;;2.10;0.83;;;7.40;99.90;;;;;;5028957;28;20619;-70
2023/01/09 11:40:50;;;;;;;0.30;0.20;;;7.70;99.90;;;;;;5043580;28;20665;-70
2023/01/09 11:43:31;;;;;;;2.20;0.93;;;7.70;99.90;;;;;;5029338;28;20222;-70
2023/01/09 11:46:00;;;;;;;0.30;0.20;;;7.60;99.90;;;;;;5022603;28;20679;-69
2023/01/09 11:48:33;;;;;;;0.30;0.20;;;7.70;99.90;;;;;;5008588;28;20628;-71
2023/01/09 11:51:02;;;;;;;1.30;0.45;;;8.00;99.90;;;;;;5017235;28;20728;-70
2023/01/09 11:54:19;;;;;;;0.73;0.53;;;7.90;99.70;;;;;;5025928;28;20225;-71
2023/01/09 11:56:48;;;;;;;0.50;0.30;;;7.70;99.90;;;;;;5027303;28;20658;-69
2023/01/09 11:59:31;;;;;;;0.87;0.77;;;7.80;99.90;;;;;;5025016;28;20714;-69
2023/01/09 12:02:19;;;;;;;0.40;0.37;;;7.80;99.90;;;;;;5026048;28;20691;-69
2023/01/09 12:04:54;;;;;;;0.50;0.37;;;7.90;99.80;;;;;;5026693;28;20690;-70
2023/01/09 12:07:49;;;;;;;2.30;0.30;;;7.90;98.90;;;;;;5028129;28;20662;-70
2023/01/09 12:10:40;;;;;;;0.63;0.40;;;8.20;98.80;;;;;;5027287;28;20620;-69
2023/01/09 12:13:41;;;;;;;0.53;0.53;;;8.00;98.90;;;;;;5026625;28;20807;-69
2023/01/09 12:16:22;;;;;;;0.40;0.30;;;8.00;99.00;;;;;;5025526;28;21414;-70
2023/01/09 12:19:07;;;;;;;1.13;0.50;;;8.10;99.20;;;;;;5023993;28;20627;-68
2023/01/09 12:21:35;;;;;;;0.60;0.47;;;8.20;99.90;;;;;;5025261;28;20730;-69
2023/01/09 12:24:33;;;;;;;0.30;0.20;;;8.30;99.90;;;;;;5026468;28;20615;-69
2023/01/09 12:27:15;;;;;;;0.40;0.40;;;8.20;99.20;;;;;;5014364;28;20662;-71
2023/01/09 12:29:58;;;;;;;0.30;0.20;;;8.20;99.90;;;;;;5028733;28;20715;-70
2023/01/09 12:32:44;;;;;;;0.30;0.20;;;8.10;99.60;;;;;;5027811;28;20661;-70
2023/01/09 12:35:23;;;;;;;0.40;0.23;;;8.00;99.90;;;;;;5028014;28;21299;-70
2023/01/09 12:38:21;;;;;;;0.37;0.33;;;7.90;99.60;;;;;;5028277;28;21199;-69
2023/01/09 12:41:12;;;;;;;0.30;0.20;;;8.00;99.90;;;;;;5019364;28;21294;-69
2023/01/09 12:43:52;;;;;;;0.67;0.37;;;8.10;99.90;;;;;;5027834;28;20633;-69
2023/01/09 12:46:20;;;;;;;2.00;0.40;;;8.00;98.50;;;;;;5018472;28;21241;-69
2023/01/09 12:49:15;;;;;;;0.60;0.43;;;8.20;99.30;;;;;;5027255;28;20631;-69
2023/01/09 12:51:47;;;;;;;0.30;0.30;;;8.10;99.50;;;;;;5028049;28;20667;-69
2023/01/09 12:54:24;;;;;;;0.87;0.27;;;8.10;99.90;;;;;;5027589;28;20726;-69
2023/01/09 12:56:55;;;;;;;0.37;0.27;;;8.10;99.90;;;;;;5026598;28;20667;-69
2023/01/09 12:59:29;;;;;;;0.30;0.30;;;8.20;99.70;;;;;;5026493;28;20611;-69
2023/01/09 13:02:03;;;;;;;0.30;0.10;;;8.20;99.10;;;;;;5026775;28;21035;-69
2023/01/09 13:04:34;;;;;;;1.43;0.70;;;8.20;98.80;;;;;;5026998;28;20627;-69
2023/01/09 13:07:04;;;;;;;0.40;0.30;;;8.10;99.20;;;;;;5027825;28;20647;-69
2023/01/09 13:09:39;;;;;;;0.30;0.20;;;8.00;99.30;;;;;;5027557;28;20632;-69
2023/01/09 13:12:12;;;;;;;0.30;0.20;;;7.90;98.30;;;;;;5027065;28;20683;-70
2023/01/09 13:14:53;;;;;;;0.30;0.23;;;7.90;98.90;;;;;;5026505;28;20627;-69
2023/01/09 13:17:25;;;;;;;3.07;0.47;;;7.90;99.90;;;;;;5026507;28;20679;-70
2023/01/09 13:19:53;;;;;;;0.30;0.30;;;7.90;99.90;;;;;;5027021;28;20626;-69
2023/01/09 13:22:20;;;;;;;0.50;0.40;;;7.40;99.90;;;;;;5025682;28;20658;-69
2023/01/09 13:25:31;;;;;;;0.30;0.20;;;7.60;99.90;;;;;;5027481;28;20623;-68
2023/01/09 13:28:01;;;;;;;0.30;0.20;;;7.50;99.90;;;;;;5026956;28;20735;-68
2023/01/09 13:30:47;;;;;;;0.30;0.30;;;7.40;99.90;;;;;;5027097;28;20234;-70
2023/01/09 13:33:20;;;;;;;0.43;0.37;;;7.30;99.90;;;;;;5027549;28;20569;-70